Terminal Aerodrome Forecast
Issued by NWS

Home | Current Version | Previous Version | Text Only | Print | Product List | Glossary On
Versions: 1 2 3 4 5 6 7 8 9 10 11 12
959
FTUS43 KSGF 300520
TAFJLN
TAF
KJLN 300520Z 3006/0106 VRB04KT P6SM SKC
     FM301000 26006KT P6SM SKC
     FM301600 27015G22KT P6SM SCT100 BKN250
     FM010000 24006KT P6SM SKC=

USA.gov is the U.S. government's official web portal to all federal, state and local government web resources and services.